Time;durP1;ratioP1;P1;durP2;ratioP2;P2;SDS_P1;SDS_P2;PMS_P1;PMS_P2;Temp;Humidity;BMP_temperature;BMP_pressure;BME280_temperature;BME280_humidity;BME280_pressure;Samples;Min_cycle;Max_cycle;Signal;HPM_P1;HPM_P2
2023/03/07 00:01:31;;;;;;;;;;;;;;;2.57;57.35;91454.78;2058659;69;20054;-75
2023/03/07 00:03:57;;;;;;;;;;;;;;;2.51;56.83;91448.78;2058514;69;20046;-75
2023/03/07 00:06:23;;;;;;;;;;;;;;;2.58;56.38;91456.22;2058361;69;20069;-74
2023/03/07 00:08:50;;;;;;;;;;;;;;;2.40;57.74;91460.50;2058663;69;20054;-75
2023/03/07 00:11:16;;;;;;;;;;;;;;;2.47;57.63;91452.00;2058507;69;20061;-74
2023/03/07 00:13:42;;;;;;;;;;;;;;;2.49;56.78;91459.75;2058701;69;20042;-75
2023/03/07 00:16:09;;;;;;;;;;;;;;;2.45;57.23;91457.44;2058625;69;20498;-74
2023/03/07 00:18:35;;;;;;;;;;;;;;;2.45;57.38;91451.16;2058681;69;20050;-74
2023/03/07 00:21:04;;;;;;;;;;;;;;;2.47;57.48;91474.22;2056852;69;20054;-74
2023/03/07 00:23:30;;;;;;;;;;;;;;;2.27;57.75;91470.75;2058774;69;20422;-75
2023/03/07 00:26:00;;;;;;;;;;;;;;;2.25;58.35;91475.47;2058243;69;20479;-76
2023/03/07 00:28:26;;;;;;;;;;;;;;;2.31;58.08;91470.31;2058672;69;20058;-75
2023/03/07 00:30:51;;;;;;;;;;;;;;;2.27;57.29;91473.53;2058775;69;20046;-75
2023/03/07 00:33:17;;;;;;;;;;;;;;;2.16;57.88;91470.66;2057998;69;20560;-75
2023/03/07 00:35:42;;;;;;;;;;;;;;;1.93;58.77;91477.38;2056673;69;20086;-75
2023/03/07 00:38:08;;;;;;;;;;;;;;;2.13;59.09;91474.59;2054741;70;20055;-77
2023/03/07 00:40:33;;;;;;;;;;;;;;;2.14;58.84;91465.66;2055301;69;20587;-74
2023/03/07 00:43:00;;;;;;;;;;;;;;;2.16;58.45;91463.03;2054701;70;20490;-75
2023/03/07 00:45:25;;;;;;;;;;;;;;;2.12;58.69;91456.47;2054709;70;20055;-74
2023/03/07 00:47:51;;;;;;;;;;;;;;;2.11;56.77;91455.75;2055172;69;20054;-74
2023/03/07 00:50:16;;;;;;;;;;;;;;;2.10;58.27;91451.50;2054655;70;20050;-75
2023/03/07 00:52:42;;;;;;;;;;;;;;;2.15;58.58;91447.69;2054784;70;20062;-75
2023/03/07 00:55:08;;;;;;;;;;;;;;;2.04;59.11;91453.84;2055207;69;20479;-76
2023/03/07 00:57:33;;;;;;;;;;;;;;;1.96;58.73;91448.44;2054742;70;20617;-76
2023/03/07 00:59:58;;;;;;;;;;;;;;;1.90;58.08;91441.72;2054670;70;20181;-76
2023/03/07 01:02:24;;;;;;;;;;;;;;;1.89;58.89;91437.50;2054606;70;20093;-75
2023/03/07 01:04:50;;;;;;;;;;;;;;;1.92;59.02;91439.81;2052003;70;20058;-76
2023/03/07 01:07:15;;;;;;;;;;;;;;;2.13;57.71;91441.28;2054691;70;20058;-75
2023/03/07 01:09:41;;;;;;;;;;;;;;;1.87;58.87;91442.91;2055380;69;20474;-75
2023/03/07 01:12:07;;;;;;;;;;;;;;;1.75;59.74;91446.28;2054657;70;20391;-76
2023/03/07 01:14:33;;;;;;;;;;;;;;;1.81;59.33;91440.41;2054643;70;20066;-74
2023/03/07 01:16:58;;;;;;;;;;;;;;;1.80;59.40;91435.47;2054759;70;20121;-74
2023/03/07 01:19:24;;;;;;;;;;;;;;;1.84;58.54;91435.75;2054479;70;20053;-74
2023/03/07 01:21:51;;;;;;;;;;;;;;;1.73;59.31;91425.97;2054372;69;20178;-75
2023/03/07 01:24:17;;;;;;;;;;;;;;;1.67;59.67;91423.47;2054661;69;20157;-75
2023/03/07 01:26:43;;;;;;;;;;;;;;;1.73;59.46;91423.19;2054897;69;20105;-75
2023/03/07 01:29:09;;;;;;;;;;;;;;;1.67;58.58;91422.75;2054924;69;20049;-74
2023/03/07 01:31:35;;;;;;;;;;;;;;;1.65;59.56;91419.81;2054682;70;20113;-75
2023/03/07 01:34:01;;;;;;;;;;;;;;;1.68;59.09;91424.22;2054477;70;20058;-75
2023/03/07 01:36:30;;;;;;;;;;;;;;;1.60;60.20;91429.91;2054455;70;20430;-75
2023/03/07 01:39:05;;;;;;;;;;;;;;;1.56;60.53;91409.47;2054280;69;20054;-74
2023/03/07 01:41:33;;;;;;;;;;;;;;;1.51;60.16;91416.75;2054568;70;20047;-76
2023/03/07 01:44:06;;;;;;;;;;;;;;;1.51;60.14;91413.97;2054529;69;20157;-75
2023/03/07 01:46:36;;;;;;;;;;;;;;;1.61;58.52;91409.19;2054540;70;20415;-75
2023/03/07 01:49:09;;;;;;;;;;;;;;;1.40;60.00;91409.03;2054383;70;20053;-75
2023/03/07 01:51:38;;;;;;;;;;;;;;;1.18;60.28;91410.91;2054389;69;20050;-75
2023/03/07 01:54:05;;;;;;;;;;;;;;;1.36;60.21;91411.50;2054509;70;20077;-74
2023/03/07 01:56:32;;;;;;;;;;;;;;;1.43;60.64;91408.59;2054875;69;20062;-75
2023/03/07 01:58:57;;;;;;;;;;;;;;;1.39;60.08;91404.81;2054226;69;20423;-76
2023/03/07 02:01:24;;;;;;;;;;;;;;;1.44;59.72;91406.56;2054908;69;20177;-76
2023/03/07 02:04:01;;;;;;;;;;;;;;;1.48;59.71;91409.63;2054521;70;20074;-76
2023/03/07 02:06:29;;;;;;;;;;;;;;;1.44;59.97;91409.31;2054557;70;20055;-75
2023/03/07 02:08:57;;;;;;;;;;;;;;;1.34;59.80;91414.88;2054589;70;20050;-75
2023/03/07 02:11:23;;;;;;;;;;;;;;;1.32;60.09;91402.88;2055055;69;20075;-75
2023/03/07 02:13:48;;;;;;;;;;;;;;;1.34;59.40;91403.03;2055243;69;20086;-77
2023/03/07 02:16:14;;;;;;;;;;;;;;;1.17;61.28;91403.91;2055165;69;20425;-76
2023/03/07 02:18:44;;;;;;;;;;;;;;;1.30;60.30;91403.47;2054281;70;20062;-76
2023/03/07 02:21:35;;;;;;;;;;;;;;;1.31;59.47;91409.75;2054016;69;20161;-76
2023/03/07 02:24:01;;;;;;;;;;;;;;;1.24;61.08;91400.28;2054587;70;20426;-75
2023/03/07 02:26:29;;;;;;;;;;;;;;;1.33;59.37;91405.09;2055168;69;20415;-75
2023/03/07 02:28:56;;;;;;;;;;;;;;;1.24;61.11;91408.59;2054207;69;20061;-76
2023/03/07 02:31:24;;;;;;;;;;;;;;;1.21;59.78;91398.66;2054260;69;20172;-76
2023/03/07 02:33:49;;;;;;;;;;;;;;;1.17;60.13;91403.91;2055051;69;20498;-74
2023/03/07 02:36:17;;;;;;;;;;;;;;;1.19;60.47;91401.25;2054542;70;20156;-76
2023/03/07 02:38:55;;;;;;;;;;;;;;;1.22;60.23;91400.09;2054561;70;20120;-75
2023/03/07 02:41:24;;;;;;;;;;;;;;;1.19;59.11;91396.47;2054379;69;20078;-76
2023/03/07 02:43:50;;;;;;;;;;;;;;;1.11;59.96;91406.97;2054126;69;20076;-77
2023/03/07 02:46:15;;;;;;;;;;;;;;;1.21;59.82;91410.47;2054692;69;20118;-76
2023/03/07 02:48:41;;;;;;;;;;;;;;;1.15;60.27;91410.03;2056311;69;20042;-76
2023/03/07 02:51:07;;;;;;;;;;;;;;;1.22;60.86;91411.19;2057570;69;20490;-76
2023/03/07 02:53:32;;;;;;;;;;;;;;;1.15;60.79;91404.50;2057640;69;20073;-76
2023/03/07 02:55:58;;;;;;;;;;;;;;;1.06;62.02;91407.25;2057437;69;20046;-76
2023/03/07 02:58:24;;;;;;;;;;;;;;;1.06;62.51;91410.03;2058041;69;20426;-76
2023/03/07 03:00:49;;;;;;;;;;;;;;;0.91;61.33;91397.84;2057837;69;20124;-77
2023/03/07 03:03:15;;;;;;;;;;;;;;;1.02;60.99;91402.84;2054028;69;20076;-76
2023/03/07 03:05:40;;;;;;;;;;;;;;;0.95;62.02;91395.38;2053937;69;20053;-75
2023/03/07 03:08:06;;;;;;;;;;;;;;;0.89;61.46;91394.94;2054426;70;20057;-77
2023/03/07 03:10:31;;;;;;;;;;;;;;;0.87;61.00;91403.13;2054072;69;20050;-74
2023/03/07 03:12:58;;;;;;;;;;;;;;;1.02;60.64;91402.13;2054052;69;20051;-75
2023/03/07 03:15:23;;;;;;;;;;;;;;;0.95;60.65;91400.22;2054486;70;20070;-75
2023/03/07 03:17:51;;;;;;;;;;;;;;;1.02;60.04;91402.13;2054857;69;20062;-74
2023/03/07 03:20:18;;;;;;;;;;;;;;;0.88;60.95;91396.25;2054601;69;20101;-75
2023/03/07 03:22:43;;;;;;;;;;;;;;;0.91;60.44;91403.41;2055345;69;20110;-75
2023/03/07 03:25:10;;;;;;;;;;;;;;;0.68;60.43;91376.06;2054218;69;20145;-74
2023/03/07 03:27:37;;;;;;;;;;;;;;;0.59;62.40;91392.66;2054451;70;20411;-74
2023/03/07 03:30:06;;;;;;;;;;;;;;;0.62;63.71;91385.97;2054388;69;20111;-75
2023/03/07 03:32:35;;;;;;;;;;;;;;;0.70;61.94;91387.31;2055611;69;20093;-73
2023/03/07 03:35:00;;;;;;;;;;;;;;;0.72;61.10;91389.50;2061101;69;20116;-75
2023/03/07 03:37:26;;;;;;;;;;;;;;;0.75;62.26;91385.59;2061063;69;20062;-73
2023/03/07 03:39:55;;;;;;;;;;;;;;;0.73;62.62;91388.19;2060890;69;20042;-74
2023/03/07 03:42:21;;;;;;;;;;;;;;;0.85;62.54;91382.84;2060897;69;20050;-74
2023/03/07 03:44:47;;;;;;;;;;;;;;;0.89;61.96;91386.63;2060980;69;20131;-75
2023/03/07 03:47:12;;;;;;;;;;;;;;;0.93;61.59;91375.13;2060667;69;20069;-74
2023/03/07 03:49:38;;;;;;;;;;;;;;;1.02;60.98;91386.22;2061102;69;20046;-74
2023/03/07 03:52:04;;;;;;;;;;;;;;;0.98;62.14;91380.38;2061534;69;20116;-74
2023/03/07 03:54:30;;;;;;;;;;;;;;;1.00;62.19;91382.56;2060955;69;20139;-75
2023/03/07 03:57:02;;;;;;;;;;;;;;;0.86;62.03;91385.03;2057748;69;20082;-75
2023/03/07 03:59:29;;;;;;;;;;;;;;;1.09;61.94;91400.53;2054422;70;20129;-75
2023/03/07 04:01:54;;;;;;;;;;;;;;;1.05;62.85;91403.72;2054436;70;20058;-76
2023/03/07 04:04:20;;;;;;;;;;;;;;;1.21;61.58;91402.16;2054187;70;20058;-75
2023/03/07 04:06:47;;;;;;;;;;;;;;;1.23;61.47;91404.34;2054525;70;20384;-75
2023/03/07 04:09:12;;;;;;;;;;;;;;;1.23;60.85;91404.34;2054523;70;20043;-73
2023/03/07 04:11:40;;;;;;;;;;;;;;;1.23;61.51;91399.50;2054392;70;20479;-75
2023/03/07 04:14:06;;;;;;;;;;;;;;;1.19;61.80;91390.94;2054409;70;20072;-75
2023/03/07 04:16:32;;;;;;;;;;;;;;;1.32;61.58;91392.53;2055293;70;20141;-75
2023/03/07 04:18:58;;;;;;;;;;;;;;;1.16;61.75;91383.03;2054491;70;20093;-75
2023/03/07 04:21:24;;;;;;;;;;;;;;;1.16;62.46;91386.53;2054498;70;20074;-75
2023/03/07 04:23:55;;;;;;;;;;;;;;;1.23;61.03;91382.88;2054427;70;20074;-74
2023/03/07 04:26:23;;;;;;;;;;;;;;;1.13;62.43;91387.69;2054393;70;20466;-75
2023/03/07 04:28:49;;;;;;;;;;;;;;;1.19;61.89;91392.94;2051747;70;20061;-75
2023/03/07 04:31:23;;;;;;;;;;;;;;;1.18;61.89;91383.19;2054010;69;20066;-75
2023/03/07 04:33:50;;;;;;;;;;;;;;;1.24;62.30;91376.03;2054848;69;20510;-77
2023/03/07 04:36:15;;;;;;;;;;;;;;;1.09;60.53;91378.34;2054430;69;20058;-75
2023/03/07 04:38:45;;;;;;;;;;;;;;;1.23;61.09;91384.94;2054901;69;20078;-76
2023/03/07 04:41:15;;;;;;;;;;;;;;;0.99;61.88;91376.28;2054503;70;20058;-75
2023/03/07 04:43:40;;;;;;;;;;;;;;;1.15;61.95;91393.41;2055737;69;20046;-73
2023/03/07 04:46:06;;;;;;;;;;;;;;;1.10;61.74;91388.13;2055786;70;20053;-75
2023/03/07 04:48:32;;;;;;;;;;;;;;;1.13;61.62;91389.75;2057611;69;20050;-75
2023/03/07 04:50:57;;;;;;;;;;;;;;;1.27;61.17;91401.84;2053510;70;20086;-74
2023/03/07 04:53:23;;;;;;;;;;;;;;;1.27;61.01;91385.94;2058125;69;20521;-75
2023/03/07 04:55:48;;;;;;;;;;;;;;;1.28;61.34;91389.44;2059129;69;20057;-76
2023/03/07 04:58:14;;;;;;;;;;;;;;;1.25;61.89;91383.03;2058884;69;20046;-77
2023/03/07 05:00:44;;;;;;;;;;;;;;;1.25;61.79;91387.88;2058324;69;20046;-76
2023/03/07 05:03:11;;;;;;;;;;;;;;;1.20;61.77;91378.53;2058649;69;20494;-75
2023/03/07 05:05:38;;;;;;;;;;;;;;;1.16;61.34;91386.53;2055109;69;20145;-76
2023/03/07 05:08:04;;;;;;;;;;;;;;;1.15;62.00;91384.34;2058045;69;20097;-77
2023/03/07 05:10:33;;;;;;;;;;;;;;;0.60;65.19;91383.06;2058279;69;20050;-74
2023/03/07 05:13:02;;;;;;;;;;;;;;;0.93;63.77;91373.09;2058570;69;20064;-75
2023/03/07 05:15:28;;;;;;;;;;;;;;;0.92;63.33;91370.91;2058482;69;20080;-74
2023/03/07 05:17:55;;;;;;;;;;;;;;;0.93;62.69;91369.59;2058306;69;20072;-76
2023/03/07 05:20:22;;;;;;;;;;;;;;;0.87;63.07;91367.09;2058032;69;20062;-75
2023/03/07 05:22:48;;;;;;;;;;;;;;;0.89;62.43;91363.75;2058864;69;20109;-75
2023/03/07 05:25:15;;;;;;;;;;;;;;;0.90;62.28;91351.34;2058323;69;20058;-75
2023/03/07 05:27:42;;;;;;;;;;;;;;;0.90;63.09;91370.75;2058524;69;20120;-76
2023/03/07 05:30:09;;;;;;;;;;;;;;;0.91;62.14;91372.91;2058004;69;20081;-75
2023/03/07 05:32:34;;;;;;;;;;;;;;;0.75;64.23;91366.91;2057820;69;20474;-77
2023/03/07 05:35:00;;;;;;;;;;;;;;;0.73;63.31;91377.88;2058144;69;20065;-77
2023/03/07 05:37:26;;;;;;;;;;;;;;;0.68;63.22;91367.78;2058675;69;20061;-76
2023/03/07 05:39:51;;;;;;;;;;;;;;;0.81;62.96;91363.13;2058777;69;20046;-74
2023/03/07 05:42:17;;;;;;;;;;;;;;;0.77;62.98;91367.06;2058273;69;20062;-75
2023/03/07 05:44:43;;;;;;;;;;;;;;;0.82;62.90;91367.38;2058218;69;20058;-75
2023/03/07 05:47:09;;;;;;;;;;;;;;;0.88;62.75;91363.03;2058528;69;20050;-75
2023/03/07 05:49:34;;;;;;;;;;;;;;;0.95;61.81;91367.69;2060119;69;20611;-76
2023/03/07 05:52:00;;;;;;;;;;;;;;;0.85;62.48;91364.16;2058557;69;20054;-76
2023/03/07 05:54:26;;;;;;;;;;;;;;;0.70;62.69;91365.16;2055351;69;20221;-75
2023/03/07 05:56:51;;;;;;;;;;;;;;;0.62;62.22;91361.78;2058311;69;20050;-77
2023/03/07 05:59:17;;;;;;;;;;;;;;;0.20;63.95;91376.66;2058108;69;20506;-76
2023/03/07 06:01:46;;;;;;;;;;;;;;;0.39;64.96;91373.22;2059263;69;20482;-76
2023/03/07 06:04:12;;;;;;;;;;;;;;;0.53;64.17;91383.91;2058240;69;20120;-76
2023/03/07 06:06:38;;;;;;;;;;;;;;;0.50;63.36;91377.47;2058049;69;20050;-77
2023/03/07 06:09:04;;;;;;;;;;;;;;;0.57;62.69;91375.91;2058586;69;20493;-76
2023/03/07 06:11:31;;;;;;;;;;;;;;;0.56;62.96;91377.97;2058582;69;20046;-76
2023/03/07 06:13:56;;;;;;;;;;;;;;;0.51;63.56;91370.66;2058098;69;20054;-75
2023/03/07 06:16:22;;;;;;;;;;;;;;;0.44;63.25;91377.03;2058635;69;20050;-75
2023/03/07 06:18:48;;;;;;;;;;;;;;;0.47;64.03;91373.13;2057902;69;20042;-77
2023/03/07 06:21:14;;;;;;;;;;;;;;;0.46;64.19;91361.31;2058036;69;20070;-77
2023/03/07 06:23:43;;;;;;;;;;;;;;;0.49;64.07;91354.59;2058031;69;20562;-77
2023/03/07 06:26:14;;;;;;;;;;;;;;;0.58;63.43;91355.94;2058592;69;20090;-77
2023/03/07 06:28:42;;;;;;;;;;;;;;;0.56;63.17;91357.84;2058063;69;20544;-77
2023/03/07 06:31:09;;;;;;;;;;;;;;;0.46;64.56;91349.50;2058040;69;20050;-77
2023/03/07 06:33:35;;;;;;;;;;;;;;;0.63;63.16;91352.16;2057886;69;20053;-76
2023/03/07 06:36:03;;;;;;;;;;;;;;;0.59;63.19;91342.81;2057310;69;20046;-76
2023/03/07 06:38:29;;;;;;;;;;;;;;;0.57;63.32;91354.50;2054713;70;20057;-77
2023/03/07 06:40:55;;;;;;;;;;;;;;;0.66;62.80;91350.28;2055495;69;20046;-77
2023/03/07 06:43:20;;;;;;;;;;;;;;;0.63;63.54;91351.44;2055185;69;20057;-77
2023/03/07 06:45:46;;;;;;;;;;;;;;;0.74;62.98;91362.69;2054689;70;20051;-76
2023/03/07 06:48:12;;;;;;;;;;;;;;;0.69;62.64;91355.41;2054664;69;20061;-76
2023/03/07 06:50:39;;;;;;;;;;;;;;;0.73;63.05;91354.94;2054711;69;20115;-76
2023/03/07 06:53:04;;;;;;;;;;;;;;;0.73;62.71;91360.50;2054714;70;20203;-77
2023/03/07 06:55:30;;;;;;;;;;;;;;;0.74;62.15;91357.16;2054589;70;20089;-77
2023/03/07 06:57:55;;;;;;;;;;;;;;;0.67;64.06;91362.81;2054586;70;20105;-76
2023/03/07 07:00:21;;;;;;;;;;;;;;;0.47;64.91;91364.81;2055118;69;20141;-77
2023/03/07 07:02:48;;;;;;;;;;;;;;;0.57;64.70;91348.94;2054476;70;20546;-76
2023/03/07 07:05:15;;;;;;;;;;;;;;;0.56;63.89;91355.81;2054510;70;20086;-75
2023/03/07 07:07:41;;;;;;;;;;;;;;;0.58;64.18;91357.97;2054611;70;20538;-76
2023/03/07 07:10:06;;;;;;;;;;;;;;;0.76;63.40;91348.25;2054614;70;20046;-76
2023/03/07 07:12:32;;;;;;;;;;;;;;;0.65;63.62;91348.84;2055143;69;20352;-76
2023/03/07 07:15:01;;;;;;;;;;;;;;;0.61;64.20;91346.47;2054628;70;20052;-75
2023/03/07 07:17:27;;;;;;;;;;;;;;;0.62;65.00;91334.09;2054516;70;20056;-75
2023/03/07 07:19:53;;;;;;;;;;;;;;;0.61;64.16;91335.41;2054602;69;20051;-76
2023/03/07 07:22:18;;;;;;;;;;;;;;;0.68;64.21;91333.81;2054629;70;20121;-77
2023/03/07 07:24:44;;;;;;;;;;;;;;;0.91;63.30;91339.66;2051721;70;20082;-78
2023/03/07 07:27:09;;;;;;;;;;;;;;;0.74;64.06;91332.22;2054515;70;20054;-79
2023/03/07 07:29:35;;;;;;;;;;;;;;;0.68;63.50;91348.38;2054500;70;20368;-76
2023/03/07 07:32:00;;;;;;;;;;;;;;;0.80;63.89;91339.53;2054450;70;20051;-77
2023/03/07 07:34:27;;;;;;;;;;;;;;;0.94;63.06;91340.56;2054313;69;20053;-77
2023/03/07 07:36:52;;;;;;;;;;;;;;;0.93;63.70;91339.84;2054310;70;20054;-78
2023/03/07 07:39:18;;;;;;;;;;;;;;;0.90;64.01;91346.53;2051686;70;20050;-76
2023/03/07 07:41:46;;;;;;;;;;;;;;;0.99;63.88;91334.00;2054419;70;20051;-76
2023/03/07 07:44:13;;;;;;;;;;;;;;;1.12;64.06;91336.34;2054452;70;20561;-78
2023/03/07 07:46:51;;;;;;;;;;;;;;;1.25;63.82;91333.16;2054476;70;20410;-78
2023/03/07 07:49:16;;;;;;;;;;;;;;;1.33;63.46;91332.25;2054811;69;20116;-75
2023/03/07 07:51:41;;;;;;;;;;;;;;;1.29;63.17;91326.44;2054389;70;20464;-76
2023/03/07 07:54:08;;;;;;;;;;;;;;;1.24;63.64;91326.16;2055014;69;20046;-77
2023/03/07 07:56:34;;;;;;;;;;;;;;;1.33;63.79;91319.16;2054344;70;20124;-79
2023/03/07 07:58:59;;;;;;;;;;;;;;;1.59;62.38;91330.63;2054825;69;20043;-78
2023/03/07 08:01:26;;;;;;;;;;;;;;;1.58;62.33;91329.19;2051497;70;20054;-77
2023/03/07 08:03:51;;;;;;;;;;;;;;;1.59;62.90;91334.13;2054968;69;20046;-77
2023/03/07 08:06:21;;;;;;;;;;;;;;;1.74;62.39;91335.84;2054951;69;20119;-75
2023/03/07 08:08:47;;;;;;;;;;;;;;;2.05;61.65;91322.06;2055072;69;20061;-76
2023/03/07 08:11:12;;;;;;;;;;;;;;;2.24;61.45;91335.88;2054918;69;20042;-75
2023/03/07 08:13:38;;;;;;;;;;;;;;;2.48;62.66;91325.69;2054864;69;20047;-73
2023/03/07 08:16:10;;;;;;;;;;;;;;;3.07;58.97;91320.53;2055122;69;20145;-75
2023/03/07 08:18:35;;;;;;;;;;;;;;;3.04;59.53;91316.16;2055657;69;20054;-75
2023/03/07 08:21:01;;;;;;;;;;;;;;;3.47;59.08;91316.84;2055716;69;20065;-76
2023/03/07 08:23:26;;;;;;;;;;;;;;;3.96;58.44;91316.41;2055270;69;20142;-75
2023/03/07 08:25:53;;;;;;;;;;;;;;;4.16;58.27;91312.09;2055740;69;20046;-76
2023/03/07 08:28:18;;;;;;;;;;;;;;;4.64;57.04;91313.59;2055567;69;20050;-74
2023/03/07 08:30:44;;;;;;;;;;;;;;;4.66;55.61;91310.91;2055526;69;20070;-75
2023/03/07 08:33:09;;;;;;;;;;;;;;;4.44;54.99;91309.56;2055445;69;20054;-74
2023/03/07 08:35:34;;;;;;;;;;;;;;;5.01;53.74;91310.16;2055601;69;20502;-75
2023/03/07 08:38:00;;;;;;;;;;;;;;;5.24;54.35;91312.19;2058306;69;20053;-75
2023/03/07 08:40:27;;;;;;;;;;;;;;;5.76;53.57;91303.25;2058766;69;20046;-74
2023/03/07 08:42:53;;;;;;;;;;;;;;;5.35;52.41;91303.03;2058788;69;20047;-74
2023/03/07 08:45:20;;;;;;;;;;;;;;;5.89;51.53;91307.44;2058898;69;20058;-75
2023/03/07 08:47:45;;;;;;;;;;;;;;;6.35;51.00;91300.91;2058719;69;20554;-75
2023/03/07 08:50:10;;;;;;;;;;;;;;;6.54;50.69;91296.28;2058670;69;20150;-74
2023/03/07 08:52:36;;;;;;;;;;;;;;;7.03;48.83;91291.13;2058732;69;20435;-75
2023/03/07 08:55:02;;;;;;;;;;;;;;;7.59;47.43;91283.38;2058722;69;20049;-76
2023/03/07 08:57:27;;;;;;;;;;;;;;;6.94;48.60;91282.94;2058771;69;20085;-77
2023/03/07 08:59:53;;;;;;;;;;;;;;;6.95;49.36;91271.13;2058814;69;20046;-76
2023/03/07 09:02:18;;;;;;;;;;;;;;;7.60;46.08;91277.13;2058609;69;20082;-77
2023/03/07 09:04:44;;;;;;;;;;;;;;;8.24;47.51;91278.03;2058744;69;20137;-77
2023/03/07 09:07:10;;;;;;;;;;;;;;;7.50;46.89;91271.06;2058690;69;20562;-76
2023/03/07 09:09:35;;;;;;;;;;;;;;;8.46;44.90;91278.38;2058702;69;20178;-76
2023/03/07 09:12:00;;;;;;;;;;;;;;;8.89;44.10;91272.59;2058710;69;20125;-75
2023/03/07 09:14:26;;;;;;;;;;;;;;;9.45;43.74;91275.66;2058655;69;20049;-75
2023/03/07 09:16:51;;;;;;;;;;;;;;;9.56;42.28;91271.19;2058702;69;20514;-75
2023/03/07 09:19:17;;;;;;;;;;;;;;;9.92;40.76;91272.66;2058537;69;20423;-75
2023/03/07 09:21:42;;;;;;;;;;;;;;;9.22;43.19;91267.66;2058620;69;20112;-78
2023/03/07 09:24:08;;;;;;;;;;;;;;;10.08;41.41;91263.44;2058840;69;20090;-77
2023/03/07 09:26:33;;;;;;;;;;;;;;;9.48;40.75;91257.50;2058341;69;20126;-77
2023/03/07 09:28:59;;;;;;;;;;;;;;;10.48;40.29;91249.53;2058626;69;20042;-77
2023/03/07 09:31:24;;;;;;;;;;;;;;;11.06;40.46;91241.78;2058931;69;20161;-77
2023/03/07 09:33:50;;;;;;;;;;;;;;;10.04;39.34;91233.09;2058731;69;20127;-77
2023/03/07 09:36:16;;;;;;;;;;;;;;;9.71;39.68;91241.56;2058647;69;20145;-78
2023/03/07 09:38:42;;;;;;;;;;;;;;;10.51;38.97;91237.00;2058605;69;20057;-78
2023/03/07 09:41:17;;;;;;;;;;;;;;;11.39;37.90;91241.56;2058726;69;20050;-78
2023/03/07 09:44:03;;;;;;;;;;;;;;;11.63;37.58;91235.28;2058793;69;20057;-77
2023/03/07 09:47:10;;;;;;;;;;;;;;;12.37;37.57;91235.56;2054318;69;20058;-78
2023/03/07 09:49:46;;;;;;;;;;;;;;;12.19;35.84;91227.28;2058809;69;20140;-78
2023/03/07 09:52:31;;;;;;;;;;;;;;;11.11;36.39;91212.41;2058613;69;20057;-78
2023/03/07 09:55:04;;;;;;;;;;;;;;;10.95;37.07;91206.94;2058399;69;20046;-78
2023/03/07 09:57:31;;;;;;;;;;;;;;;11.83;36.94;91199.34;2058646;69;20050;-78
2023/03/07 10:00:04;;;;;;;;;;;;;;;12.19;36.75;91190.59;2058564;69;20054;-77
2023/03/07 10:02:47;;;;;;;;;;;;;;;11.95;35.53;91194.09;2058552;69;20510;-78
2023/03/07 10:05:15;;;;;;;;;;;;;;;12.30;36.19;91181.06;2058625;69;20050;-78
2023/03/07 10:07:40;;;;;;;;;;;;;;;11.48;35.69;91182.66;2058584;69;20556;-79
2023/03/07 10:10:26;;;;;;;;;;;;;;;12.39;34.58;91177.09;2058673;69;20141;-78
2023/03/07 10:13:10;;;;;;;;;;;;;;;12.78;33.83;91169.00;2054579;69;20046;-79
2023/03/07 10:15:47;;;;;;;;;;;;;;;12.04;34.99;91166.13;2058647;69;20046;-79
2023/03/07 10:18:23;;;;;;;;;;;;;;;13.70;34.08;91160.88;2058527;69;20483;-78
2023/03/07 10:20:55;;;;;;;;;;;;;;;13.19;32.40;91159.53;2058598;69;20053;-78
2023/03/07 10:23:24;;;;;;;;;;;;;;;13.29;32.56;91153.47;2058909;69;20548;-76
2023/03/07 10:25:49;;;;;;;;;;;;;;;14.16;33.21;91137.91;2058506;69;20076;-80
2023/03/07 10:28:23;;;;;;;;;;;;;;;14.18;30.42;91129.47;2058678;69;20050;-77
2023/03/07 10:30:50;;;;;;;;;;;;;;;13.73;30.61;91126.31;2058534;69;20141;-77
2023/03/07 10:33:17;;;;;;;;;;;;;;;15.44;30.48;91119.94;2058325;69;20402;-78
2023/03/07 10:35:47;;;;;;;;;;;;;;;15.37;29.86;91113.47;2058428;69;20046;-78
2023/03/07 10:38:18;;;;;;;;;;;;;;;15.02;29.01;91120.59;2058531;69;20139;-77
2023/03/07 10:40:47;;;;;;;;;;;;;;;13.75;31.78;91122.84;2058340;69;20050;-79
2023/03/07 10:43:22;;;;;;;;;;;;;;;16.62;29.10;91110.44;2058495;69;20574;-77
2023/03/07 10:45:47;;;;;;;;;;;;;;;18.34;27.13;91115.06;2058445;69;20046;-79
2023/03/07 10:48:17;;;;;;;;;;;;;;;16.49;28.48;91103.91;2058246;69;20479;-78
2023/03/07 10:50:50;;;;;;;;;;;;;;;17.51;26.69;91110.09;2058364;69;20062;-77
2023/03/07 10:53:26;;;;;;;;;;;;;;;18.38;25.68;91095.88;2058490;69;20097;-76
2023/03/07 10:55:51;;;;;;;;;;;;;;;19.66;24.44;91104.31;2058358;69;20201;-77
2023/03/07 10:58:21;;;;;;;;;;;;;;;20.62;23.44;91089.31;2058485;69;20157;-77
2023/03/07 11:00:58;;;;;;;;;;;;;;;21.38;22.03;91087.66;2058471;69;20083;-77
2023/03/07 11:03:44;;;;;;;;;;;;;;;21.53;21.83;91076.84;2057668;69;20101;-77
2023/03/07 11:06:28;;;;;;;;;;;;;;;22.46;20.80;91066.91;2054401;69;20054;-77
2023/03/07 11:08:55;;;;;;;;;;;;;;;21.54;21.24;91070.41;2058488;69;20054;-77
2023/03/07 11:11:24;;;;;;;;;;;;;;;21.86;21.79;91060.19;2058379;69;20073;-76
2023/03/07 11:14:10;;;;;;;;;;;;;;;23.86;19.98;91066.03;2058413;69;20046;-77
2023/03/07 11:16:40;;;;;;;;;;;;;;;24.78;19.39;91062.41;2058312;69;20084;-76
2023/03/07 11:19:24;;;;;;;;;;;;;;;25.20;18.01;91060.22;2058324;69;20490;-77
2023/03/07 11:21:53;;;;;;;;;;;;;;;26.47;16.56;91049.59;2058274;69;20124;-76
2023/03/07 11:24:24;;;;;;;;;;;;;;;26.82;16.69;91043.66;2057769;69;20204;-76
2023/03/07 11:26:52;;;;;;;;;;;;;;;26.74;15.75;91032.31;2058315;69;20180;-77
2023/03/07 11:29:18;;;;;;;;;;;;;;;26.04;15.89;91025.34;2058177;69;20085;-76
2023/03/07 11:31:49;;;;;;;;;;;;;;;25.44;18.08;91019.44;2058181;69;20418;-76
2023/03/07 11:34:26;;;;;;;;;;;;;;;26.80;15.83;91017.72;2058232;69;20070;-76
2023/03/07 11:37:13;;;;;;;;;;;;;;;24.29;17.29;91014.34;2058327;69;20143;-77
2023/03/07 11:39:57;;;;;;;;;;;;;;;25.35;16.71;90995.16;2058604;69;20153;-77
2023/03/07 11:42:27;;;;;;;;;;;;;;;25.40;15.92;90992.88;2058261;69;20049;-77
2023/03/07 11:44:57;;;;;;;;;;;;;;;28.23;15.49;90990.53;2057753;69;20050;-78
2023/03/07 11:47:22;;;;;;;;;;;;;;;29.44;14.06;90987.88;2058356;69;20050;-77
2023/03/07 11:49:57;;;;;;;;;;;;;;;31.08;13.09;90982.88;2058286;69;20430;-77
2023/03/07 11:52:49;;;;;;;;;;;;;;;26.71;16.37;90987.66;2058779;69;20046;-77
2023/03/07 11:55:20;;;;;;;;;;;;;;;27.71;15.61;90970.41;2055773;69;20157;-77
2023/03/07 11:58:08;;;;;;;;;;;;;;;28.61;14.51;90968.31;2058858;69;20486;-78
2023/03/07 12:00:37;;;;;;;;;;;;;;;26.56;15.31;90962.06;2054933;69;20073;-78
2023/03/07 12:03:05;;;;;;;;;;;;;;;26.69;15.73;90953.78;2058636;69;20045;-77
2023/03/07 12:05:58;;;;;;;;;;;;;;;25.43;15.47;90945.28;2058798;69;20042;-77
2023/03/07 12:08:43;;;;;;;;;;;;;;;24.76;16.43;90936.56;2058708;69;20056;-78
2023/03/07 12:11:09;;;;;;;;;;;;;;;26.85;15.56;90949.78;2058892;69;20056;-78
2023/03/07 12:13:48;;;;;;;;;;;;;;;27.17;15.63;90939.53;2058732;69;20069;-77
2023/03/07 12:16:14;;;;;;;;;;;;;;;29.60;14.18;90926.44;2058764;69;20042;-76
2023/03/07 12:18:39;;;;;;;;;;;;;;;26.71;16.21;90922.00;2058109;69;20050;-77
2023/03/07 12:21:23;;;;;;;;;;;;;;;28.92;15.18;90926.75;2058736;69;20471;-77
2023/03/07 12:23:55;;;;;;;;;;;;;;;28.34;14.43;90927.97;2058676;69;20097;-78
2023/03/07 12:26:24;;;;;;;;;;;;;;;29.86;13.22;90918.19;2058719;69;20491;-77
2023/03/07 12:28:56;;;;;;;;;;;;;;;30.92;13.53;90931.28;2058868;69;20046;-78
2023/03/07 12:31:27;;;;;;;;;;;;;;;31.84;13.21;90915.56;2058379;69;20085;-77
2023/03/07 12:34:02;;;;;;;;;;;;;;;30.84;13.54;90908.41;2058985;69;20046;-78
2023/03/07 12:36:27;;;;;;;;;;;;;;;28.25;14.44;90900.78;2058894;69;20518;-78
2023/03/07 12:39:15;;;;;;;;;;;;;;;30.80;13.64;90894.06;2058768;69;20153;-77
2023/03/07 12:42:02;;;;;;;;;;;;;;;29.68;13.11;90887.00;2058854;69;20054;-76
2023/03/07 12:44:42;;;;;;;;;;;;;;;28.68;13.92;90891.34;2058865;69;20057;-77
2023/03/07 12:47:16;;;;;;;;;;;;;;;29.49;13.80;90872.50;2059122;69;20122;-77
2023/03/07 12:49:47;;;;;;;;;;;;;;;29.30;12.97;90852.22;2060320;69;20072;-76
2023/03/07 12:52:33;;;;;;;;;;;;;;;28.34;14.89;90856.38;2059935;69;20145;-77
2023/03/07 12:55:25;;;;;;;;;;;;;;;30.85;14.06;90857.53;2058718;69;20108;-79
2023/03/07 12:58:02;;;;;;;;;;;;;;;32.23;12.86;90864.97;2058329;69;20057;-77
2023/03/07 13:00:29;;;;;;;;;;;;;;;32.08;12.93;90864.97;2058673;69;20054;-76
2023/03/07 13:03:05;;;;;;;;;;;;;;;31.66;12.46;90861.88;2058520;69;20076;-77